createdAt,value
2019-04-22T00:00:28.954Z,13.80
2019-04-22T00:02:55.799Z,13.70
2019-04-22T00:05:39.563Z,12.90
2019-04-22T00:08:08.979Z,13.50
2019-04-22T00:10:42.012Z,13.40
2019-04-22T00:13:11.317Z,13.30
2019-04-22T00:15:27.947Z,13.30
2019-04-22T00:18:00.339Z,13.10
2019-04-22T00:20:22.622Z,13.20
2019-04-22T00:22:51.597Z,13.10
2019-04-22T00:25:19.820Z,13.10
2019-04-22T00:27:49.004Z,13.10
2019-04-22T00:30:16.446Z,12.90
2019-04-22T00:32:42.081Z,13.00
2019-04-22T00:35:13.034Z,12.90
2019-04-22T00:37:43.466Z,12.90
2019-04-22T00:40:07.278Z,12.80
2019-04-22T00:42:37.531Z,14.20
2019-04-22T00:45:06.313Z,12.60
2019-04-22T00:52:23.763Z,12.40
2019-04-22T00:54:53.175Z,12.50
2019-04-22T00:57:16.880Z,12.50
2019-04-22T00:59:48.518Z,12.60
2019-04-22T01:02:18.603Z,12.60
2019-04-22T01:04:40.931Z,12.60
2019-04-22T01:07:09.306Z,12.60
2019-04-22T01:09:34.857Z,11.10
2019-04-22T01:12:04.150Z,12.50
2019-04-22T01:14:28.276Z,12.50
2019-04-22T01:16:56.457Z,12.40
2019-04-22T01:19:23.786Z,11.30
2019-04-22T01:21:44.758Z,12.30
2019-04-22T01:24:12.250Z,12.30
2019-04-22T01:26:34.623Z,12.20
2019-04-22T01:28:58.895Z,12.20
2019-04-22T01:31:17.166Z,12.10
2019-04-22T01:33:42.943Z,11.90
2019-04-22T01:36:24.635Z,11.90
2019-04-22T01:38:51.167Z,11.80
2019-04-22T01:41:25.088Z,11.80
2019-04-22T01:44:00.390Z,11.80
2019-04-22T01:46:16.383Z,11.70
2019-04-22T01:48:52.887Z,11.60
2019-04-22T01:51:08.088Z,11.60
2019-04-22T01:53:44.956Z,10.80
2019-04-22T01:56:05.976Z,11.60
2019-04-22T01:58:28.906Z,11.50
2019-04-22T02:00:59.532Z,11.40
2019-04-22T02:03:29.682Z,11.40
2019-04-22T02:05:50.473Z,11.30
2019-04-22T02:08:31.286Z,11.20
2019-04-22T02:10:47.762Z,11.30
2019-04-22T02:13:15.648Z,11.40
2019-04-22T02:15:41.578Z,11.50
2019-04-22T02:18:18.046Z,10.60
2019-04-22T02:20:35.874Z,11.40
2019-04-22T02:23:37.056Z,11.20
2019-04-22T02:25:42.716Z,11.10
2019-04-22T02:28:23.981Z,11.30
2019-04-22T02:30:54.384Z,11.20
2019-04-22T02:35:52.678Z,9.90
2019-04-22T02:38:07.224Z,11.60
2019-04-22T02:40:38.051Z,11.70
2019-04-22T02:43:01.281Z,11.80
2019-04-22T02:45:23.093Z,11.90
2019-04-22T02:47:45.468Z,11.80
2019-04-22T02:50:08.766Z,11.60
2019-04-22T02:52:39.484Z,11.40
2019-04-22T02:55:10.746Z,11.10
2019-04-22T03:00:10.205Z,11.80
2019-04-22T03:05:07.369Z,11.00
2019-04-22T03:07:23.539Z,10.80
2019-04-22T03:09:51.782Z,9.10
2019-04-22T03:14:45.960Z,10.70
2019-04-22T03:17:17.617Z,10.50
2019-04-22T03:19:57.189Z,10.30
2019-04-22T03:22:12.475Z,10.20
2019-04-22T03:24:51.355Z,10.30
2019-04-22T03:26:58.582Z,10.30
2019-04-22T03:29:46.604Z,10.40
2019-04-22T03:32:32.691Z,10.50
2019-04-22T03:35:19.315Z,10.40
2019-04-22T03:39:39.898Z,10.30
2019-04-22T03:44:31.845Z,10.20
2019-04-22T03:46:53.395Z,10.20
2019-04-22T03:51:45.801Z,10.00
2019-04-22T03:54:19.263Z,10.00
2019-04-22T03:57:10.444Z,9.80
2019-04-22T03:59:12.012Z,9.80
2019-04-22T04:01:37.332Z,9.20
2019-04-22T04:04:02.930Z,9.90
2019-04-22T04:06:36.593Z,8.80
2019-04-22T04:08:55.477Z,10.00
2019-04-22T04:11:43.125Z,10.00
2019-04-22T04:13:57.953Z,10.00
2019-04-22T04:16:10.624Z,10.00
2019-04-22T04:23:41.534Z,9.90
2019-04-22T04:25:52.625Z,9.90
2019-04-22T04:28:39.751Z,9.80
2019-04-22T04:30:48.681Z,9.60
2019-04-22T04:38:05.112Z,8.20
2019-04-22T04:48:08.874Z,9.90
2019-04-22T04:50:27.263Z,10.00
2019-04-22T04:53:08.348Z,9.90
2019-04-22T05:07:40.804Z,9.70
2019-04-22T05:10:14.199Z,9.80
2019-04-22T05:15:00.837Z,9.90
2019-04-22T05:17:25.553Z,9.80
2019-04-22T05:19:53.744Z,9.90
2019-04-22T05:22:14.932Z,10.00
2019-04-22T05:24:42.660Z,10.10
2019-04-22T05:27:26.223Z,10.30
2019-04-22T05:29:56.557Z,10.40
2019-04-22T05:32:01.474Z,10.70
2019-04-22T05:34:28.034Z,10.90
2019-04-22T05:36:55.420Z,11.00
2019-04-22T05:39:21.550Z,11.10
2019-04-22T05:41:48.773Z,11.10
2019-04-22T05:44:14.751Z,11.40
2019-04-22T05:46:39.568Z,11.60
2019-04-22T05:49:12.877Z,10.80
2019-04-22T05:51:38.656Z,11.90
2019-04-22T05:54:07.781Z,12.00
2019-04-22T05:56:39.463Z,12.20
2019-04-22T06:04:04.240Z,13.70
2019-04-22T06:06:18.194Z,12.60
2019-04-22T06:08:48.674Z,12.80
2019-04-22T06:11:17.113Z,10.90
2019-04-22T06:13:36.891Z,13.00
2019-04-22T06:16:01.847Z,13.20
2019-04-22T06:18:33.442Z,13.30
2019-04-22T06:21:07.206Z,13.50
2019-04-22T06:23:34.605Z,13.50
2019-04-22T06:28:29.089Z,13.90
2019-04-22T06:33:20.827Z,14.10
2019-04-22T06:35:43.643Z,14.20
2019-04-22T06:40:43.989Z,14.60
2019-04-22T06:45:29.087Z,14.80
2019-04-22T06:48:09.709Z,15.00
2019-04-22T06:50:34.285Z,15.20
2019-04-22T06:52:52.523Z,15.30
2019-04-22T06:55:21.113Z,15.50
2019-04-22T06:57:43.563Z,15.70
2019-04-22T07:00:18.106Z,16.00
2019-04-22T07:02:56.467Z,16.30
2019-04-22T07:05:08.275Z,16.50
2019-04-22T07:07:31.198Z,16.70
2019-04-22T07:10:09.602Z,17.10
2019-04-22T07:12:30.544Z,17.30
2019-04-22T07:14:59.990Z,17.50
2019-04-22T07:17:22.156Z,17.70
2019-04-22T07:20:02.119Z,17.80
2019-04-22T07:22:18.137Z,17.90
2019-04-22T07:27:12.878Z,18.20
2019-04-22T07:29:44.733Z,18.50
2019-04-22T07:34:45.922Z,18.30
2019-04-22T07:39:23.621Z,19.00
2019-04-22T07:41:50.858Z,19.20
2019-04-22T07:44:16.537Z,19.40
2019-04-22T07:46:50.142Z,19.60
2019-04-22T07:49:10.800Z,19.80
2019-04-22T07:51:36.630Z,20.00
2019-04-22T07:54:10.887Z,20.30
2019-04-22T07:56:30.539Z,20.60
2019-04-22T07:59:05.737Z,20.50
2019-04-22T08:01:26.898Z,20.60
2019-04-22T08:06:23.361Z,21.30
2019-04-22T08:08:45.972Z,21.40
2019-04-22T08:11:30.938Z,21.60
2019-04-22T08:13:43.933Z,21.60
2019-04-22T08:16:10.771Z,21.80
2019-04-22T08:18:35.896Z,21.90
2019-04-22T08:23:30.314Z,19.60
2019-04-22T08:25:55.768Z,22.30
2019-04-22T08:28:26.294Z,22.40
2019-04-22T08:30:53.574Z,22.40
2019-04-22T08:33:22.212Z,22.40
2019-04-22T08:36:00.281Z,22.60
2019-04-22T08:38:15.828Z,22.80
2019-04-22T08:40:43.133Z,23.00
2019-04-22T08:43:12.585Z,20.90
2019-04-22T08:45:31.888Z,22.80
2019-04-22T08:47:59.081Z,23.10
2019-04-22T08:50:29.822Z,23.20
2019-04-22T08:52:58.723Z,23.30
2019-04-22T08:55:28.942Z,23.40
2019-04-22T08:58:08.461Z,23.60
2019-04-22T09:00:17.371Z,23.60
2019-04-22T09:02:46.683Z,23.70
2019-04-22T09:05:11.941Z,23.60
2019-04-22T09:07:36.789Z,23.50
2019-04-22T09:10:02.005Z,23.70
2019-04-22T09:14:49.533Z,23.60
2019-04-22T09:19:51.678Z,23.80
2019-04-22T09:22:17.241Z,24.10
2019-04-22T09:27:22.142Z,24.20
2019-04-22T09:29:39.800Z,24.20
2019-04-22T09:34:35.395Z,22.10
2019-04-22T09:37:08.113Z,22.70
2019-04-22T09:39:31.301Z,24.90
2019-04-22T09:41:51.374Z,25.00
2019-04-22T09:44:21.792Z,25.10
2019-04-22T09:46:47.074Z,25.30
2019-04-22T09:49:23.247Z,25.20
2019-04-22T09:51:48.318Z,25.40
2019-04-22T09:54:16.711Z,25.60
2019-04-22T09:56:37.466Z,25.80
2019-04-22T09:59:02.380Z,26.30
2019-04-22T10:01:51.899Z,26.40
2019-04-22T10:06:30.914Z,26.10
2019-04-22T10:09:02.260Z,26.30
2019-04-22T10:11:23.599Z,26.20
2019-04-22T10:13:49.322Z,26.40
2019-04-22T10:16:20.655Z,26.40
2019-04-22T10:18:40.566Z,26.60
2019-04-22T10:21:12.729Z,26.50
2019-04-22T10:23:34.486Z,26.50
2019-04-22T10:26:02.538Z,26.20
2019-04-22T10:28:32.352Z,26.30
2019-04-22T10:33:14.991Z,26.90
2019-04-22T10:35:24.738Z,26.60
2019-04-22T10:37:48.198Z,26.90
2019-04-22T10:40:23.731Z,26.90
2019-04-22T10:42:49.620Z,26.90
2019-04-22T10:45:16.611Z,26.90
2019-04-22T10:47:43.500Z,26.80
2019-04-22T10:50:10.444Z,27.00
2019-04-22T10:52:37.379Z,27.00
2019-04-22T10:55:05.482Z,27.20
2019-04-22T10:57:32.297Z,27.30
2019-04-22T11:00:00.693Z,27.80
2019-04-22T11:02:27.699Z,28.20
2019-04-22T11:04:54.373Z,27.40
2019-04-22T11:07:25.223Z,28.20
2019-04-22T11:09:55.309Z,28.10
2019-04-22T11:12:19.322Z,28.00
2019-04-22T11:14:43.177Z,28.30
2019-04-22T11:17:08.922Z,28.30
2019-04-22T11:19:35.338Z,28.10
2019-04-22T11:22:09.788Z,28.20
2019-04-22T11:24:28.820Z,28.20
2019-04-22T11:26:57.019Z,28.10
2019-04-22T11:29:23.772Z,28.20
2019-04-22T11:31:50.522Z,28.10
2019-04-22T11:34:17.200Z,28.20
2019-04-22T11:36:44.920Z,29.30
2019-04-22T11:39:12.912Z,28.30
2019-04-22T11:41:37.973Z,26.70
2019-04-22T11:44:05.412Z,28.50
2019-04-22T11:46:31.545Z,28.60
2019-04-22T11:48:58.254Z,28.70
2019-04-22T11:51:25.200Z,28.90
2019-04-22T11:53:52.611Z,28.10
2019-04-22T11:56:20.784Z,29.00
2019-04-22T11:58:47.061Z,29.00
2019-04-22T12:01:14.868Z,29.10
2019-04-22T12:03:41.988Z,28.90
2019-04-22T12:06:08.430Z,28.20
2019-04-22T12:08:35.727Z,28.80
2019-04-22T12:11:05.504Z,28.80
2019-04-22T12:13:28.607Z,26.90
2019-04-22T12:15:55.610Z,28.00
2019-04-22T12:18:22.852Z,27.70
2019-04-22T12:20:50.686Z,27.90
2019-04-22T12:23:17.038Z,26.60
2019-04-22T12:25:53.550Z,28.80
2019-04-22T12:28:11.070Z,27.40
2019-04-22T12:30:37.621Z,27.50
2019-04-22T12:33:07.385Z,27.40
2019-04-22T12:35:32.759Z,27.20
2019-04-22T12:38:02.646Z,27.10
2019-04-22T12:40:34.160Z,26.80
2019-04-22T12:42:53.507Z,26.70
2019-04-22T12:45:20.486Z,26.60
2019-04-22T12:47:46.414Z,26.50
2019-04-22T12:50:21.815Z,26.50
2019-04-22T12:52:47.849Z,26.30
2019-04-22T12:55:07.979Z,25.40
2019-04-22T12:57:34.719Z,26.30
2019-04-22T13:00:01.934Z,26.30
2019-04-22T13:02:29.293Z,26.20
2019-04-22T13:04:56.279Z,26.10
2019-04-22T13:07:22.028Z,25.90
2019-04-22T13:09:49.530Z,26.30
2019-04-22T13:12:17.148Z,26.20
2019-04-22T13:14:43.333Z,26.20
2019-04-22T13:17:10.310Z,26.20
2019-04-22T13:19:38.002Z,26.20
2019-04-22T13:22:04.933Z,26.20
2019-04-22T13:24:31.951Z,26.00
2019-04-22T13:26:58.987Z,26.10
2019-04-22T13:29:25.376Z,26.20
2019-04-22T13:31:52.938Z,26.10
2019-04-22T13:34:26.969Z,26.00
2019-04-22T13:36:46.730Z,26.00
2019-04-22T13:39:13.285Z,25.90
2019-04-22T13:41:46.156Z,25.70
2019-04-22T13:44:07.058Z,25.60
2019-04-22T13:46:34.077Z,25.40
2019-04-22T13:49:31.653Z,25.50
2019-04-22T13:52:05.980Z,25.60
2019-04-22T13:56:43.163Z,25.80
2019-04-22T13:58:58.464Z,26.40
2019-04-22T14:01:18.717Z,25.80
2019-04-22T14:03:52.171Z,25.80
2019-04-22T14:06:18.738Z,25.80
2019-04-22T14:08:47.057Z,25.80
2019-04-22T14:11:23.323Z,25.90
2019-04-22T14:13:39.691Z,25.90
2019-04-22T14:16:06.825Z,27.30
2019-04-22T14:18:34.798Z,24.20
2019-04-22T14:21:00.980Z,26.00
2019-04-22T14:23:28.627Z,25.90
2019-04-22T14:25:54.852Z,25.90
2019-04-22T14:28:23.864Z,25.80
2019-04-22T14:30:50.501Z,25.80
2019-04-22T14:33:16.331Z,25.60
2019-04-22T14:35:43.654Z,25.60
2019-04-22T14:38:12.050Z,25.50
2019-04-22T14:40:38.696Z,25.40
2019-04-22T14:43:25.195Z,25.40
2019-04-22T14:46:04.649Z,25.30
2019-04-22T14:48:33.459Z,25.20
2019-04-22T14:50:49.738Z,25.20
2019-04-22T14:53:19.473Z,25.20
2019-04-22T14:55:24.999Z,25.10
2019-04-22T14:57:46.984Z,25.10
2019-04-22T15:00:15.515Z,24.00
2019-04-22T15:02:41.774Z,24.80
2019-04-22T15:05:10.112Z,24.70
2019-04-22T15:07:36.779Z,24.60
2019-04-22T15:10:04.004Z,24.60
2019-04-22T15:12:36.757Z,24.50
2019-04-22T15:14:57.585Z,24.40
2019-04-22T15:17:29.257Z,24.40
2019-04-22T15:20:43.696Z,24.40
2019-04-22T15:23:12.764Z,24.30
2019-04-22T15:25:40.706Z,24.40
2019-04-22T15:28:06.494Z,24.40
2019-04-22T15:30:33.464Z,24.40
2019-04-22T15:33:01.190Z,24.40
2019-04-22T15:35:29.098Z,24.40
2019-04-22T15:37:55.250Z,24.40
2019-04-22T15:40:24.869Z,23.20
2019-04-22T15:42:56.949Z,24.30
2019-04-22T15:45:36.773Z,24.30
2019-04-22T15:48:04.036Z,24.30
2019-04-22T15:50:50.723Z,24.30
2019-04-22T15:53:22.955Z,24.30
2019-04-22T15:55:52.176Z,24.20
2019-04-22T15:58:23.861Z,24.20
2019-04-22T16:01:01.807Z,24.20
2019-04-22T16:03:18.448Z,24.20
2019-04-22T16:05:46.088Z,24.30
2019-04-22T16:08:12.975Z,22.30
2019-04-22T16:10:39.831Z,24.20
2019-04-22T16:13:13.137Z,24.20
2019-04-22T16:15:34.234Z,24.20
2019-04-22T16:18:02.926Z,24.20
2019-04-22T16:20:28.062Z,24.20
2019-04-22T16:23:03.480Z,24.20
2019-04-22T16:25:35.354Z,24.20
2019-04-22T16:28:02.953Z,24.10
2019-04-22T16:30:28.740Z,24.10
2019-04-22T16:33:01.269Z,24.10
2019-04-22T16:35:26.904Z,24.10
2019-04-22T16:37:54.957Z,24.00
2019-04-22T16:40:20.844Z,24.00
2019-04-22T16:42:54.540Z,24.00
2019-04-22T16:45:15.712Z,23.90
2019-04-22T16:47:41.831Z,23.90
2019-04-22T16:50:09.836Z,23.90
2019-04-22T16:52:36.276Z,23.90
2019-04-22T16:55:03.478Z,22.40
2019-04-22T16:57:30.058Z,23.80
2019-04-22T16:59:56.273Z,23.70
2019-04-22T17:02:29.049Z,23.70
2019-04-22T17:05:21.425Z,23.60
2019-04-22T17:07:50.058Z,23.60
2019-04-22T17:10:17.786Z,23.50
2019-04-22T17:12:53.233Z,23.50
2019-04-22T17:15:13.924Z,22.40
2019-04-22T17:17:37.764Z,23.40
2019-04-22T17:20:05.090Z,23.30
2019-04-22T17:22:31.502Z,23.30
2019-04-22T17:24:58.464Z,25.50
2019-04-22T17:27:26.498Z,23.20
2019-04-22T17:29:52.557Z,23.10
2019-04-22T17:32:21.540Z,23.00
2019-04-22T17:34:47.525Z,23.00
2019-04-22T17:37:19.336Z,23.00
2019-04-22T17:39:49.187Z,23.00
2019-04-22T17:42:25.351Z,22.90
2019-04-22T17:45:15.696Z,22.90
2019-04-22T17:48:03.398Z,22.90
2019-04-22T17:50:32.652Z,22.80
2019-04-22T17:53:02.578Z,22.70
2019-04-22T17:55:31.493Z,22.30
2019-04-22T17:57:49.470Z,22.70
2019-04-22T18:00:14.365Z,22.60
2019-04-22T18:02:39.694Z,22.60
2019-04-22T18:04:56.206Z,22.50
2019-04-22T18:07:38.421Z,22.50
2019-04-22T18:10:27.536Z,22.40
2019-04-22T18:12:38.558Z,22.30
2019-04-22T18:15:07.193Z,22.30
2019-04-22T18:17:32.424Z,22.20
2019-04-22T18:19:51.830Z,22.20
2019-04-22T18:22:12.487Z,22.10
2019-04-22T18:24:45.008Z,22.10
2019-04-22T18:27:31.855Z,22.10
2019-04-22T18:29:41.622Z,22.00
2019-04-22T18:31:58.073Z,22.00
2019-04-22T18:34:26.594Z,21.90
2019-04-22T18:36:59.075Z,22.00
2019-04-22T18:39:28.149Z,21.80
2019-04-22T18:41:52.242Z,21.80
2019-04-22T18:44:25.427Z,21.70
2019-04-22T18:46:51.237Z,21.60
2019-04-22T18:49:17.225Z,21.50
2019-04-22T18:51:52.927Z,20.10
2019-04-22T18:54:24.296Z,21.30
2019-04-22T18:56:52.425Z,21.30
2019-04-22T18:59:09.639Z,21.20
2019-04-22T19:01:25.941Z,21.20
2019-04-22T19:04:01.335Z,21.20
2019-04-22T19:06:56.145Z,21.00
2019-04-22T19:09:11.246Z,20.10
2019-04-22T19:11:34.229Z,21.00
2019-04-22T19:19:18.463Z,20.90
2019-04-22T19:21:20.991Z,20.80
2019-04-22T19:23:49.114Z,20.70
2019-04-22T19:26:25.601Z,20.60
2019-04-22T19:28:46.498Z,19.80
2019-04-22T19:31:13.463Z,20.50
2019-04-22T19:33:40.562Z,20.50
2019-04-22T19:36:04.973Z,20.50
2019-04-22T19:38:20.664Z,20.40
2019-04-22T19:43:28.776Z,20.30
2019-04-22T19:45:55.722Z,20.30
2019-04-22T19:48:31.149Z,20.20
2019-04-22T19:50:53.110Z,20.20
2019-04-22T19:53:21.227Z,20.20
2019-04-22T19:55:40.740Z,20.20
2019-04-22T19:58:13.132Z,20.20
2019-04-22T20:00:36.190Z,20.10
2019-04-22T20:03:33.379Z,20.10
2019-04-22T20:05:56.181Z,20.00
2019-04-22T20:08:21.247Z,20.00
2019-04-22T20:10:46.038Z,20.00
2019-04-22T20:13:22.474Z,20.00
2019-04-22T20:15:33.539Z,19.90
2019-04-22T20:20:44.118Z,19.90
2019-04-22T20:22:57.516Z,19.80
2019-04-22T20:25:21.358Z,19.80
2019-04-22T20:28:01.150Z,19.00
2019-04-22T20:30:29.861Z,19.80
2019-04-22T20:32:47.810Z,19.70
2019-04-22T20:35:21.008Z,19.70
2019-04-22T20:37:46.586Z,19.70
2019-04-22T20:40:10.737Z,19.60
2019-04-22T20:45:09.880Z,19.60
2019-04-22T20:47:26.479Z,19.60
2019-04-22T20:50:02.110Z,19.60
2019-04-22T20:52:36.247Z,18.60
2019-04-22T20:54:53.053Z,19.70
2019-04-22T20:57:24.030Z,19.50
2019-04-22T20:59:48.474Z,19.40
2019-04-22T21:02:14.132Z,19.40
2019-04-22T21:04:35.819Z,19.30
2019-04-22T21:07:08.091Z,17.10
2019-04-22T21:09:35.450Z,19.30
2019-04-22T21:11:59.528Z,19.20
2019-04-22T21:14:28.871Z,19.20
2019-04-22T21:17:00.602Z,19.20
2019-04-22T21:19:36.038Z,19.10
2019-04-22T21:21:59.572Z,19.10
2019-04-22T21:24:18.619Z,19.00
2019-04-22T21:26:45.365Z,19.00
2019-04-22T21:29:12.397Z,18.90
2019-04-22T21:31:43.745Z,18.90
2019-04-22T21:34:05.295Z,18.90
2019-04-22T21:36:37.555Z,18.90
2019-04-22T21:38:57.861Z,18.90
2019-04-22T21:41:24.898Z,18.90
2019-04-22T21:43:53.377Z,18.80
2019-04-22T21:46:27.876Z,18.80
2019-04-22T21:48:46.347Z,18.80
2019-04-22T21:51:19.825Z,18.80
2019-04-22T21:53:50.360Z,18.70
2019-04-22T21:56:29.058Z,18.70
2019-04-22T21:58:43.303Z,18.70
2019-04-22T22:01:18.945Z,18.60
2019-04-22T22:03:47.711Z,18.60
2019-04-22T22:06:06.238Z,18.50
2019-04-22T22:08:42.356Z,18.50
2019-04-22T22:11:06.484Z,18.50
2019-04-22T22:13:34.423Z,18.50
2019-04-22T22:16:00.125Z,18.50
2019-04-22T22:18:23.452Z,18.50
2019-04-22T22:21:15.713Z,18.50
2019-04-22T22:23:25.353Z,18.40
2019-04-22T22:25:50.851Z,17.60
2019-04-22T22:28:38.323Z,18.40
2019-04-22T22:30:58.240Z,18.40
2019-04-22T22:33:10.970Z,18.30
2019-04-22T22:35:38.285Z,18.30
2019-04-22T22:38:03.322Z,18.30
2019-04-22T22:40:17.456Z,18.30
2019-04-22T22:42:43.715Z,18.20
2019-04-22T22:45:14.165Z,18.20
2019-04-22T22:47:54.071Z,18.10
2019-04-22T22:50:20.141Z,18.10
2019-04-22T22:53:02.330Z,18.10
2019-04-22T22:55:10.697Z,18.10
2019-04-22T22:57:46.054Z,18.00
2019-04-22T23:00:07.944Z,17.90
2019-04-22T23:02:36.703Z,17.90
2019-04-22T23:05:04.063Z,17.90
2019-04-22T23:07:47.607Z,17.90
2019-04-22T23:09:53.767Z,17.80
2019-04-22T23:14:49.797Z,17.70
2019-04-22T23:17:05.189Z,17.60
2019-04-22T23:19:24.081Z,17.60
2019-04-22T23:21:57.491Z,17.30
2019-04-22T23:24:39.956Z,17.50
2019-04-22T23:27:10.396Z,17.50
2019-04-22T23:29:37.086Z,17.40
2019-04-22T23:32:08.800Z,17.40
2019-04-22T23:34:42.904Z,17.40
2019-04-22T23:37:08.452Z,17.40
2019-04-22T23:39:48.220Z,17.30
2019-04-22T23:42:15.933Z,17.30
2019-04-22T23:44:39.741Z,17.30
2019-04-22T23:46:59.837Z,17.30
2019-04-22T23:49:26.752Z,17.20
2019-04-22T23:52:08.589Z,17.20
2019-04-22T23:54:31.572Z,17.10
2019-04-22T23:56:55.265Z,17.20
2019-04-22T23:59:34.041Z,17.20
